Time;durP1;ratioP1;P1;durP2;ratioP2;P2;SDS_P1;SDS_P2;PMS_P1;PMS_P2;Temp;Humidity;BMP_temperature;BMP_pressure;BME280_temperature;BME280_humidity;BME280_pressure;Samples;Min_cycle;Max_cycle;Signal;HPM_P1;HPM_P2
2022/10/08 00:04:47;;;;;;;13.57;7.32;;;;;;;11.85;96.78;101156.88;10291300;28;20118;-74
2022/10/08 00:09:48;;;;;;;11.13;7.15;;;;;;;11.22;97.54;101047.94;10290869;28;20067;-74
2022/10/08 00:14:49;;;;;;;9.60;7.68;;;;;;;11.93;98.56;101156.06;10297878;28;20035;-74
2022/10/08 00:19:50;;;;;;;13.80;7.72;;;;;;;11.92;98.85;101154.41;10298185;28;20133;-73
2022/10/08 00:24:52;;;;;;;11.05;6.97;;;;;;;11.88;99.82;101148.56;10298019;28;20042;-73
2022/10/08 00:29:53;;;;;;;9.55;6.40;;;;;;;11.84;100.00;101150.66;10297149;28;20046;-75
2022/10/08 00:34:53;;;;;;;9.27;7.25;;;;;;;11.57;100.00;101113.53;10296439;28;20049;-74
2022/10/08 00:39:54;;;;;;;8.68;6.25;;;;;;;11.55;100.00;101119.03;10297308;28;20106;-74
2022/10/08 00:44:59;;;;;;;9.80;6.13;;;;;;;11.75;100.00;101158.75;10296982;28;20038;-74
2022/10/08 00:50:24;;;;;;;15.45;6.32;;;;;;;11.78;100.00;101159.25;10297439;28;20050;-74
2022/10/08 00:55:27;;;;;;;10.38;6.35;;;;;;;11.72;100.00;101156.41;10296991;28;20039;-76
2022/10/08 01:00:29;;;;;;;10.10;5.95;;;;;;;11.67;100.00;101164.88;10296877;28;20043;-74
2022/10/08 01:05:58;;;;;;;10.55;6.10;;;;;;;11.59;100.00;101152.31;10296011;28;20047;-73
2022/10/08 01:11:20;;;;;;;8.05;5.97;;;;;;;11.51;100.00;101141.59;10296109;28;20059;-76
2022/10/08 01:17:03;;;;;;;9.70;6.47;;;;;;;11.55;100.00;101158.94;10295605;28;20118;-75
2022/10/08 01:22:28;;;;;;;13.10;6.85;;;;;;;11.60;100.00;101169.94;10293877;28;20089;-76
2022/10/08 01:27:36;;;;;;;10.38;6.82;;;;;;;11.36;100.00;101141.31;10294896;28;20042;-74
2022/10/08 01:33:00;;;;;;;10.00;7.03;;;;;;;11.12;100.00;101098.56;10295636;28;20078;-75
2022/10/08 01:38:05;;;;;;;11.95;7.13;;;;;;;11.59;100.00;101172.78;10295275;28;20054;-75
2022/10/08 01:43:11;;;;;;;8.35;6.97;;;;;;;11.53;100.00;101160.09;10305710;28;20047;-76
2022/10/08 01:48:17;;;;;;;8.98;6.93;;;;;;;11.59;100.00;101175.44;10293299;28;20058;-76
2022/10/08 01:53:23;;;;;;;10.68;7.45;;;;;;;11.58;100.00;101169.28;10295007;28;20495;-78
2022/10/08 01:58:55;;;;;;;12.07;7.95;;;;;;;11.62;100.00;101172.47;10293993;28;20059;-74
2022/10/08 02:09:15;;;;;;;10.80;7.95;;;;;;;11.07;100.00;101092.84;10293437;28;20074;-74
2022/10/08 02:14:16;;;;;;;12.07;7.35;;;;;;;11.51;100.00;101173.53;10293681;28;20058;-74
2022/10/08 02:19:46;;;;;;;19.88;8.13;;;;;;;11.53;100.00;101174.22;10293718;28;20058;-74
2022/10/08 02:24:56;;;;;;;14.55;6.85;;;;;;;10.95;100.00;101103.75;10293216;28;20055;-73
2022/10/08 02:30:10;;;;;;;12.95;7.40;;;;;;;11.07;100.00;101119.44;10292792;28;20043;-74
2022/10/08 02:35:18;;;;;;;25.65;7.82;;;;;;;11.06;100.00;101131.09;10292825;28;20043;-77
2022/10/08 02:40:20;;;;;;;16.90;7.35;;;;;;;11.28;100.00;101173.19;10291748;28;20042;-74
2022/10/08 02:45:27;;;;;;;21.55;7.18;;;;;;;11.17;100.00;101155.63;10293294;28;20517;-74
2022/10/08 02:50:31;;;;;;;12.38;6.63;;;;;;;11.09;100.00;101141.41;10292122;28;20588;-74
2022/10/08 02:55:56;;;;;;;27.33;8.77;;;;;;;11.34;100.00;101179.72;10292136;28;20502;-74
2022/10/08 03:01:35;;;;;;;18.10;8.23;;;;;;;11.36;100.00;101178.56;10291759;28;20039;-76
2022/10/08 03:06:36;;;;;;;17.77;7.07;;;;;;;11.24;100.00;101160.34;10290582;28;20054;-74
2022/10/08 03:11:37;;;;;;;19.00;7.47;;;;;;;11.15;100.00;101146.13;10292279;28;20062;-74
2022/10/08 03:16:42;;;;;;;12.60;6.68;;;;;;;10.90;100.00;101098.03;10309342;28;20093;-76
2022/10/08 03:21:45;;;;;;;19.97;6.80;;;;;;;11.45;100.00;101187.44;10331930;28;20038;-74
2022/10/08 03:26:46;;;;;;;12.70;7.30;;;;;;;11.29;100.00;101158.88;10332201;28;20050;-74
2022/10/08 03:31:48;;;;;;;10.73;7.35;;;;;;;11.03;100.00;101102.13;10331709;28;20072;-75
2022/10/08 03:36:49;;;;;;;11.10;6.75;;;;;;;11.38;100.00;101152.66;10332112;28;20469;-75
2022/10/08 03:41:50;;;;;;;9.80;6.70;;;;;;;11.48;100.00;101160.53;10331199;28;20133;-75
2022/10/08 03:46:51;;;;;;;12.60;6.90;;;;;;;11.93;100.00;101188.84;10336152;28;20116;-75
2022/10/08 03:51:52;;;;;;;18.35;6.80;;;;;;;12.49;100.00;101200.00;10338895;28;20038;-75
2022/10/08 03:56:52;;;;;;;15.48;6.20;;;;;;;12.79;100.00;101187.97;10339542;28;20034;-75
2022/10/08 04:01:53;;;;;;;13.65;6.47;;;;;;;12.75;98.74;101149.28;10319962;28;20098;-76
2022/10/08 04:06:54;;;;;;;8.55;5.45;;;;;;;13.23;97.78;101204.56;10298970;28;20082;-74
2022/10/08 04:11:55;;;;;;;14.25;5.43;;;;;;;13.42;96.83;101197.28;10298915;28;20077;-75
2022/10/08 04:16:56;;;;;;;11.57;5.20;;;;;;;13.11;95.79;101120.53;10297788;28;20043;-74
2022/10/08 04:21:56;;;;;;;6.75;4.60;;;;;;;13.80;94.21;101205.63;10303795;28;20438;-75
2022/10/08 04:27:12;;;;;;;13.70;4.75;;;;;;;13.66;92.56;101135.88;10322118;28;20070;-75
2022/10/08 04:32:15;;;;;;;9.43;5.03;;;;;;;14.13;92.12;101201.91;10337610;28;20488;-76
2022/10/08 04:37:16;;;;;;;9.32;4.82;;;;;;;14.37;90.94;101203.69;10306418;28;20046;-77
2022/10/08 04:42:17;;;;;;;8.45;4.65;;;;;;;14.49;90.18;101206.81;10307031;28;20092;-79
2022/10/08 04:47:17;;;;;;;9.13;4.55;;;;;;;14.14;89.20;101119.91;10326953;28;20077;-82
2022/10/08 04:52:19;;;;;;;8.57;4.45;;;;;;;14.69;88.57;101201.94;10296675;28;20050;-78
2022/10/08 04:57:20;;;;;;;7.40;4.50;;;;;;;14.48;88.19;101153.53;10336518;28;20081;-79
2022/10/08 05:02:20;;;;;;;7.60;4.25;;;;;;;14.52;88.33;101146.88;10336849;28;20458;-75
2022/10/08 05:07:21;;;;;;;7.88;4.25;;;;;;;14.93;87.96;101194.81;10335579;28;20049;-78
2022/10/08 05:12:22;;;;;;;4.90;3.35;;;;;;;15.03;87.72;101180.19;10336637;28;20061;-77
2022/10/08 05:17:23;;;;;;;5.35;3.55;;;;;;;15.04;87.16;101135.53;10312550;28;20039;-76
2022/10/08 05:22:24;;;;;;;5.70;3.20;;;;;;;15.59;86.96;101208.59;10295932;28;20039;-77
2022/10/08 05:27:24;;;;;;;8.00;5.32;;;;;;;15.75;86.67;101211.16;10297966;28;20043;-76
2022/10/08 05:32:25;;;;;;;6.60;4.10;;;;;;;16.03;85.79;101206.03;10304169;28;20142;-75
2022/10/08 05:37:26;;;;;;;10.32;3.38;;;;;;;16.12;84.94;101196.91;10295461;28;20054;-79
2022/10/08 05:42:27;;;;;;;6.45;3.00;;;;;;;16.31;83.98;101203.56;10294661;28;20042;-82
2022/10/08 05:47:27;;;;;;;4.18;2.85;;;;;;;16.33;83.22;101181.91;10294991;28;20035;-80
2022/10/08 05:52:28;;;;;;;6.18;2.70;;;;;;;16.39;82.47;101173.13;10294363;28;20046;-78
2022/10/08 05:57:29;;;;;;;3.53;2.67;;;;;;;16.54;81.79;101181.16;10294848;28;20070;-76
2022/10/08 06:02:30;;;;;;;4.72;2.50;;;;;;;16.69;81.05;101190.00;10293980;28;20122;-76
2022/10/08 06:07:31;;;;;;;6.03;2.67;;;;;;;16.52;80.60;101129.56;10293448;28;20074;-72
2022/10/08 06:12:31;;;;;;;5.68;2.05;;;;;;;16.74;79.35;101117.84;10294344;28;20418;-71
2022/10/08 06:17:32;;;;;;;15.00;2.65;;;;;;;17.29;78.71;101171.91;10293458;28;20047;-70
2022/10/08 06:22:34;;;;;;;4.75;1.98;;;;;;;17.38;77.99;101149.31;10293663;28;20046;-74
2022/10/08 06:28:48;;;;;;;4.97;2.00;;;;;;;17.85;74.94;101171.19;10531455;28;20825;-71
2022/10/08 06:33:49;;;;;;;11.75;2.35;;;;;;;17.83;74.62;101141.84;10436545;28;20058;-71
2022/10/08 06:38:55;;;;;;;6.50;1.70;;;;;;;18.06;70.23;101160.38;10407659;28;20041;-74
2022/10/08 06:43:56;;;;;;;5.22;1.58;;;;;;;18.12;71.47;101156.06;10424039;28;20051;-74
2022/10/08 06:48:59;;;;;;;16.60;1.90;;;;;;;18.36;68.48;101144.81;10449139;28;20045;-69
2022/10/08 06:54:00;;;;;;;1.77;1.10;;;;;;;18.42;67.31;101143.19;10450988;28;20107;-74
2022/10/08 06:59:02;;;;;;;6.07;1.70;;;;;;;18.33;66.89;101101.34;10464244;28;20076;-75
2022/10/08 07:04:05;;;;;;;9.63;1.50;;;;;;;18.68;65.87;101132.53;10467231;28;20488;-76
2022/10/08 07:09:07;;;;;;;7.53;1.23;;;;;;;18.89;65.27;101139.66;10408926;28;20045;-71
2022/10/08 07:14:08;;;;;;;5.05;1.63;;;;;;;18.89;64.03;101114.59;10407086;28;20053;-73
2022/10/08 07:19:09;;;;;;;6.20;1.40;;;;;;;18.86;63.81;101059.31;10404798;28;20034;-75
2022/10/08 07:24:10;;;;;;;5.63;1.70;;;;;;;19.22;63.11;101092.28;10405311;28;20061;-75
2022/10/08 07:29:13;;;;;;;6.95;1.40;;;;;;;19.22;62.00;101121.91;10405981;28;20045;-70
2022/10/08 07:34:14;;;;;;;4.78;1.80;;;;;;;19.03;63.68;101107.41;10404617;28;20451;-70
2022/10/08 07:39:17;;;;;;;4.72;2.05;;;;;;;19.05;63.10;101110.69;10381578;28;20068;-75
2022/10/08 07:44:18;;;;;;;3.15;1.60;;;;;;;18.76;63.43;101058.06;10378430;28;20099;-68
2022/10/08 07:49:19;;;;;;;2.85;1.50;;;;;;;18.73;63.80;101031.53;10377126;28;20048;-71
2022/10/08 07:54:20;;;;;;;5.78;1.20;;;;;;;19.35;63.31;101106.59;10378029;28;20044;-74
2022/10/08 07:59:21;;;;;;;2.78;1.20;;;;;;;19.32;61.78;101096.19;10392294;28;20037;-68
2022/10/08 08:04:23;;;;;;;1.83;1.00;;;;;;;19.07;61.91;101042.13;10418036;28;20053;-74
2022/10/08 08:09:24;;;;;;;11.10;1.10;;;;;;;19.98;60.68;101084.56;10416671;28;20044;-76
2022/10/08 08:14:25;;;;;;;9.27;1.52;;;;;;;20.05;59.91;101090.75;10408149;28;20046;-76
2022/10/08 08:19:26;;;;;;;2.97;1.05;;;;;;;19.93;59.12;101091.63;10375476;28;20556;-69
2022/10/08 08:24:27;;;;;;;7.28;1.40;;;;;;;19.37;59.31;101001.31;10375533;28;20057;-73
2022/10/08 08:29:27;;;;;;;4.70;1.20;;;;;;;20.07;59.08;101066.25;10375626;28;20041;-73
2022/10/08 08:34:29;;;;;;;4.65;1.10;;;;;;;19.67;59.04;101003.53;10376043;28;20042;-71
2022/10/08 08:39:30;;;;;;;10.10;1.17;;;;;;;20.21;59.11;101040.06;10376572;28;20071;-73
2022/10/08 08:44:35;;;;;;;3.38;1.10;;;;;;;20.61;56.98;101050.66;10398059;28;20045;-70
2022/10/08 08:49:48;;;;;;;10.65;1.80;;;;;;;20.95;58.34;101049.41;10385961;28;20525;-75
2022/10/08 08:54:52;;;;;;;9.18;1.55;;;;;;;20.49;57.66;100983.88;10375178;28;20057;-69
2022/10/08 08:59:55;;;;;;;5.97;1.50;;;;;;;20.52;57.52;100999.66;10388386;28;20112;-76
2022/10/08 09:04:59;;;;;;;;;;;;;;;20.48;55.89;101017.28;10415603;28;20046;-75
2022/10/08 09:10:04;;;;;;;8.40;1.50;;;;;;;20.61;57.81;101008.31;10415871;28;19924;-72
2022/10/08 09:15:17;;;;;;;5.57;1.45;;;;;;;20.76;56.10;100999.91;10415382;28;20038;-72
2022/10/08 09:20:21;;;;;;;3.45;1.30;;;;;;;20.85;55.65;100959.94;10390086;28;20490;-70
2022/10/08 09:25:32;;;;;;;10.00;1.50;;;;;;;21.19;56.22;100985.63;10374129;28;20070;-74
2022/10/08 09:30:43;;;;;;;5.18;1.77;;;;;;;21.12;55.34;100960.53;10374139;28;20501;-68
2022/10/08 09:35:47;;;;;;;14.30;5.30;;;;;;;21.16;56.35;100959.88;10373025;28;20056;-74
2022/10/08 09:41:18;;;;;;;7.07;3.05;;;;;;;21.45;56.98;100957.53;10399478;28;20501;-73
2022/10/08 09:46:31;;;;;;;5.53;1.70;;;;;;;21.19;55.74;100929.69;10413665;28;20084;-69
2022/10/08 09:51:33;;;;;;;3.22;1.58;;;;;;;21.27;55.84;100939.41;10414653;28;20052;-69
2022/10/08 09:56:34;;;;;;;3.45;1.40;;;;;;;20.56;56.92;100875.88;10413556;28;20504;-71
2022/10/08 10:01:44;;;;;;;4.95;1.63;;;;;;;21.31;57.84;100927.06;10412879;28;20045;-80
2022/10/08 10:06:49;;;;;;;12.73;2.10;;;;;;;22.00;56.26;100902.53;10414589;28;20045;-75
2022/10/08 10:12:02;;;;;;;8.57;1.90;;;;;;;21.92;54.05;100835.25;10413475;28;20047;-67
2022/10/08 10:17:10;;;;;;;9.23;2.50;;;;;;;22.27;54.26;100914.66;10409261;28;20498;-70
2022/10/08 10:22:17;;;;;;;4.38;1.90;;;;;;;22.36;54.70;100898.91;10387305;28;20045;-73
2022/10/08 10:27:34;;;;;;;5.72;1.75;;;;;;;22.26;53.81;100907.59;10371197;28;20053;-74
2022/10/08 10:32:50;;;;;;;9.88;2.70;;;;;;;21.95;55.01;100886.16;10371773;28;20077;-72
2022/10/08 10:37:55;;;;;;;9.45;1.95;;;;;;;21.68;56.60;100894.63;10371551;28;20069;-78
2022/10/08 10:43:13;;;;;;;7.22;2.22;;;;;;;21.51;54.80;100890.91;10371597;28;20462;-67
2022/10/08 10:48:14;;;;;;;5.07;2.00;;;;;;;20.86;56.99;100810.38;10370581;28;20042;-75
2022/10/08 10:54:10;;;;;;;3.42;1.40;;;;;;;21.32;56.68;100876.56;10371126;28;20415;-72
2022/10/08 10:59:31;;;;;;;8.93;1.75;;;;;;;21.25;56.98;100878.53;10300819;28;20045;-71
2022/10/08 11:05:02;;;;;;;8.93;2.63;;;;;;;21.23;57.01;100869.81;10370983;28;20073;-71
2022/10/08 11:10:27;;;;;;;5.85;2.45;;;;;;;20.85;57.05;100803.31;10371307;28;20049;-68
2022/10/08 11:15:46;;;;;;;9.02;1.90;;;;;;;20.81;57.41;100786.75;10378580;28;20501;-73
2022/10/08 11:21:45;;;;;;;9.75;1.60;;;;;;;21.35;57.31;100870.69;10379104;28;20061;-71
2022/10/08 11:27:04;;;;;;;5.70;1.60;;;;;;;21.20;58.02;100857.56;10388039;28;20061;-69
2022/10/08 11:32:12;;;;;;;6.65;1.77;;;;;;;21.13;59.19;100849.56;10378159;28;20046;-77
2022/10/08 11:37:48;;;;;;;6.90;1.80;;;;;;;20.62;59.63;100777.00;10378135;28;20042;-75
2022/10/08 11:43:16;;;;;;;11.35;1.83;;;;;;;20.86;60.92;100849.00;10398717;28;20077;-77
2022/10/08 11:48:28;;;;;;;9.00;2.17;;;;;;;20.71;61.72;100859.34;10377253;28;20156;-71
2022/10/08 11:53:29;;;;;;;9.43;1.90;;;;;;;20.57;61.57;100844.31;10377875;28;20129;-70
2022/10/08 11:58:32;;;;;;;9.93;1.75;;;;;;;20.12;61.97;100777.00;10377517;28;20129;-75
2022/10/08 12:03:38;;;;;;;7.70;1.70;;;;;;;20.52;62.27;100842.25;10377025;28;20072;-72
2022/10/08 12:08:58;;;;;;;12.95;1.90;;;;;;;20.03;62.25;100769.19;10376498;28;20046;-69
2022/10/08 12:14:15;;;;;;;8.77;1.98;;;;;;;19.94;62.84;100762.41;10376936;28;20515;-72
2022/10/08 12:19:34;;;;;;;8.02;1.88;;;;;;;19.96;62.38;100763.03;10376174;28;20042;-70
2022/10/08 12:24:37;;;;;;;8.50;1.90;;;;;;;20.38;63.01;100833.44;10376868;28;20065;-70
2022/10/08 12:29:58;;;;;;;9.82;2.13;;;;;;;20.42;63.57;100834.66;10375755;28;20037;-74
2022/10/08 12:35:00;;;;;;;17.15;2.42;;;;;;;19.94;63.76;100767.00;10375352;28;20048;-72
2022/10/08 12:40:19;;;;;;;10.00;2.88;;;;;;;20.00;63.66;100783.13;10374153;28;20077;-70
2022/10/08 12:45:43;;;;;;;15.48;2.30;;;;;;;20.29;63.70;100832.06;10375138;28;20044;-68
2022/10/08 12:50:53;;;;;;;7.38;2.05;;;;;;;20.21;63.42;100829.63;10374269;28;20038;-68
2022/10/08 12:55:56;;;;;;;16.08;2.00;;;;;;;20.00;65.09;100809.25;10374791;28;20038;-75
2022/10/08 13:01:03;;;;;;;16.55;1.90;;;;;;;19.88;65.01;100803.75;10374606;28;20125;-70
2022/10/08 13:06:27;;;;;;;9.75;4.28;;;;;;;20.03;65.94;100815.03;10374713;28;20052;-72
2022/10/08 13:11:28;;;;;;;21.75;4.63;;;;;;;19.53;65.01;100752.94;10386795;28;20045;-70
2022/10/08 13:16:45;;;;;;;29.00;8.95;;;;;;;19.02;64.55;100681.13;10374673;28;20045;-72
2022/10/08 13:21:59;;;;;;;25.35;11.82;;;;;;;19.36;64.85;100735.66;10373715;28;20111;-69
2022/10/08 13:27:00;;;;;;;20.60;11.25;;;;;;;19.75;64.81;100806.53;10373999;28;20111;-73
2022/10/08 13:32:13;;;;;;;26.77;7.95;;;;;;;19.66;66.35;100788.97;10374182;28;20076;-76
2022/10/08 13:37:39;;;;;;;16.67;3.17;;;;;;;19.72;65.69;100810.50;10373791;28;20395;-72
2022/10/08 13:42:55;;;;;;;21.45;3.70;;;;;;;19.19;66.67;100734.50;10372263;28;20042;-72
2022/10/08 13:47:56;;;;;;;16.45;5.03;;;;;;;19.56;66.39;100795.63;10372272;28;20501;-74
2022/10/08 13:52:59;;;;;;;16.13;7.32;;;;;;;19.41;67.02;100772.69;10372076;28;20072;-72
2022/10/08 13:58:02;;;;;;;17.95;7.00;;;;;;;19.53;67.30;100806.84;10372616;28;20064;-75
2022/10/08 14:03:03;;;;;;;28.10;12.20;;;;;;;19.36;67.53;100778.75;10372859;28;20052;-70
2022/10/08 14:08:10;;;;;;;30.10;17.13;;;;;;;19.33;68.31;100780.00;10372275;28;20048;-73
2022/10/08 14:13:12;;;;;;;55.80;27.70;;;;;;;18.67;68.24;100700.31;10371350;28;20121;-75
2022/10/08 14:18:13;;;;;;;83.60;19.85;;;;;;;19.03;68.71;100766.25;10372650;28;20049;-75
2022/10/08 14:23:14;;;;;;;41.47;21.75;;;;;;;19.24;68.88;100812.78;10372536;28;20107;-71
2022/10/08 14:28:15;;;;;;;38.60;21.08;;;;;;;18.98;68.97;100784.91;10372742;28;20568;-73
2022/10/08 14:33:15;;;;;;;25.60;10.63;;;;;;;18.64;69.06;100743.78;10371816;28;20064;-69
2022/10/08 14:38:16;;;;;;;43.47;20.10;;;;;;;19.09;69.53;100816.56;10381387;28;20037;-74
2022/10/08 14:43:17;;;;;;;25.08;6.63;;;;;;;18.62;69.41;100735.09;10412626;28;20146;-75
2022/10/08 14:48:18;;;;;;;30.75;11.80;;;;;;;18.56;69.58;100740.50;10390099;28;20042;-75
2022/10/08 14:53:19;;;;;;;13.35;5.20;;;;;;;18.10;69.49;100671.47;10380817;28;20046;-69
2022/10/08 14:58:19;;;;;;;18.33;6.47;;;;;;;18.87;70.00;100801.72;10381025;28;20034;-72
2022/10/08 15:03:22;;;;;;;16.80;7.88;;;;;;;18.92;70.32;100832.34;10379664;28;20075;-72
2022/10/08 15:08:23;;;;;;;19.75;4.05;;;;;;;18.55;69.79;100788.09;10378236;28;20053;-71
2022/10/08 15:13:23;;;;;;;21.83;5.13;;;;;;;18.70;69.00;100837.13;10390171;28;20046;-71
2022/10/08 15:18:24;;;;;;;19.08;5.03;;;;;;;18.63;69.48;100841.69;10378824;28;20532;-74
2022/10/08 15:23:25;;;;;;;16.08;2.72;;;;;;;18.46;69.29;100833.22;10389025;28;20038;-72
2022/10/08 15:28:27;;;;;;;20.40;3.25;;;;;;;18.47;69.69;100855.56;10425218;28;20056;-72
2022/10/08 15:33:28;;;;;;;28.17;3.28;;;;;;;18.36;69.94;100853.50;10429496;28;20029;-72
2022/10/08 15:38:29;;;;;;;26.95;5.28;;;;;;;18.23;70.05;100847.06;10417347;28;20042;-69
2022/10/08 15:43:32;;;;;;;15.13;2.63;;;;;;;17.69;70.50;100780.81;10424300;28;20053;-69
2022/10/08 15:48:33;;;;;;;19.10;4.87;;;;;;;18.02;70.71;100853.47;10433208;28;20528;-70
2022/10/08 15:53:35;;;;;;;15.65;3.13;;;;;;;17.77;71.40;100839.78;10422409;28;20045;-70
2022/10/08 15:58:37;;;;;;;14.45;2.53;;;;;;;17.82;72.30;100867.91;10410209;28;20594;-68
2022/10/08 16:03:43;;;;;;;13.68;2.50;;;;;;;17.67;73.18;100855.41;10429781;28;20084;-70
2022/10/08 16:08:45;;;;;;;12.07;2.10;;;;;;;17.65;73.39;100862.00;10427066;28;20059;-69
2022/10/08 16:13:54;;;;;;;11.38;2.10;;;;;;;17.55;74.77;100859.72;10426091;28;20614;-74
2022/10/08 16:19:00;;;;;;;12.43;2.25;;;;;;;17.49;74.87;100863.22;10429611;28;20076;-71
2022/10/08 16:24:01;;;;;;;14.30;2.33;;;;;;;17.37;75.16;100859.44;10425935;28;20053;-68
2022/10/08 16:29:05;;;;;;;17.48;1.95;;;;;;;17.19;76.16;100863.50;10428201;28;20045;-72
2022/10/08 16:34:18;;;;;;;7.72;2.00;;;;;;;17.20;77.93;100875.91;10425837;28;20046;-71
2022/10/08 16:39:20;;;;;;;6.80;1.98;;;;;;;17.09;77.94;100879.13;10389568;28;20049;-69
2022/10/08 16:44:21;;;;;;;13.90;2.00;;;;;;;16.90;78.53;100867.22;10386400;28;20037;-69
2022/10/08 16:49:24;;;;;;;12.98;2.15;;;;;;;16.83;80.51;100869.06;10384842;28;20564;-69
2022/10/08 16:54:25;;;;;;;3.95;1.60;;;;;;;16.74;81.30;100865.66;10392836;28;20099;-68
2022/10/08 16:59:28;;;;;;;13.93;2.10;;;;;;;16.46;82.52;100857.63;10385934;28;20464;-72
2022/10/08 17:04:33;;;;;;;6.05;1.88;;;;;;;16.16;83.71;100832.81;10378508;28;20034;-73
2022/10/08 17:09:35;;;;;;;8.70;1.88;;;;;;;16.01;84.72;100832.06;10398051;28;20053;-70
2022/10/08 17:14:36;;;;;;;11.75;2.10;;;;;;;15.84;86.86;100829.63;10387279;28;20037;-71
2022/10/08 17:19:37;;;;;;;6.75;2.08;;;;;;;15.86;87.35;100849.03;10395837;28;20053;-69
2022/10/08 17:24:38;;;;;;;5.88;1.85;;;;;;;15.73;88.76;100849.72;10406389;28;20057;-68
2022/10/08 17:29:39;;;;;;;10.25;2.10;;;;;;;15.50;89.66;100817.69;10415516;28;20045;-75
2022/10/08 17:34:39;;;;;;;9.57;2.20;;;;;;;15.52;90.66;100846.94;10389026;28;20413;-70
2022/10/08 17:39:40;;;;;;;4.93;1.92;;;;;;;15.42;91.82;100833.88;10372942;28;20045;-71
2022/10/08 17:44:41;;;;;;;6.78;2.13;;;;;;;15.19;92.48;100817.94;10373142;28;20046;-71
2022/10/08 17:49:42;;;;;;;4.78;2.08;;;;;;;15.06;93.73;100818.59;10373243;28;20512;-72
2022/10/08 17:54:42;;;;;;;9.93;2.42;;;;;;;15.14;94.52;100851.66;10372190;28;20044;-69
2022/10/08 17:59:43;;;;;;;6.45;2.22;;;;;;;14.53;95.15;100744.81;10372948;28;20038;-70
2022/10/08 18:04:44;;;;;;;7.40;2.42;;;;;;;14.95;95.38;100820.91;10372917;28;20034;-73
2022/10/08 18:09:45;;;;;;;7.10;2.53;;;;;;;14.58;95.29;100761.16;10373352;28;20050;-71
2022/10/08 18:14:47;;;;;;;6.97;2.60;;;;;;;14.95;97.51;100824.41;10371541;28;20042;-72
2022/10/08 18:19:48;;;;;;;8.30;2.42;;;;;;;15.05;97.07;100838.34;10372400;28;20042;-71
2022/10/08 18:24:49;;;;;;;7.53;2.55;;;;;;;15.10;97.34;100843.13;10372297;28;20111;-71
2022/10/08 18:29:50;;;;;;;7.47;2.40;;;;;;;14.99;97.85;100827.56;10373023;28;20040;-72
2022/10/08 18:34:51;;;;;;;7.72;2.22;;;;;;;14.88;98.18;100820.81;10371586;28;20595;-70
2022/10/08 18:39:51;;;;;;;5.32;2.33;;;;;;;15.04;98.53;100841.19;10372010;28;20042;-72
2022/10/08 18:44:52;;;;;;;7.93;2.25;;;;;;;14.94;98.45;100808.56;10371288;28;20049;-73
2022/10/08 18:49:53;;;;;;;5.55;2.33;;;;;;;15.06;99.07;100839.19;10370377;28;20460;-73
2022/10/08 18:54:54;;;;;;;5.38;2.40;;;;;;;14.60;99.69;100749.25;10372467;28;20080;-68
2022/10/08 18:59:54;;;;;;;7.63;2.80;;;;;;;15.02;99.35;100801.25;10370460;28;20074;-71
2022/10/08 19:04:56;;;;;;;5.85;2.47;;;;;;;14.32;99.57;100697.41;10371554;28;20037;-68
2022/10/08 19:09:57;;;;;;;7.32;2.78;;;;;;;15.05;99.67;100800.91;10371870;28;20080;-71
2022/10/08 19:14:58;;;;;;;5.30;3.10;;;;;;;14.08;100.00;100653.91;10371476;28;20070;-73
2022/10/08 19:19:59;;;;;;;5.03;2.50;;;;;;;14.76;100.00;100764.28;10371480;28;20497;-69
2022/10/08 19:25:00;;;;;;;5.28;2.63;;;;;;;13.99;99.91;100638.16;10370621;28;20053;-72
2022/10/08 19:30:01;;;;;;;6.68;2.72;;;;;;;14.32;100.00;100714.28;10370948;28;20053;-69
2022/10/08 19:35:02;;;;;;;7.72;3.10;;;;;;;14.88;100.00;100798.59;10376525;28;20038;-72
2022/10/08 19:40:04;;;;;;;6.13;2.92;;;;;;;14.72;100.00;100778.22;10377103;28;20061;-73
2022/10/08 19:45:06;;;;;;;6.10;2.92;;;;;;;14.84;100.00;100822.22;10378591;28;20045;-72
2022/10/08 19:50:07;;;;;;;5.18;2.97;;;;;;;14.48;100.00;100769.41;10379468;28;20498;-73
2022/10/08 19:55:09;;;;;;;8.95;3.00;;;;;;;14.69;100.00;100802.63;10386688;28;20107;-73
2022/10/08 20:00:10;;;;;;;2.80;2.28;;;;;;;14.73;100.00;100814.63;10376976;28;20558;-71
2022/10/08 20:05:11;;;;;;;5.18;2.50;;;;;;;13.96;100.00;100671.41;10377173;28;20069;-71
2022/10/08 20:10:15;;;;;;;6.07;2.50;;;;;;;14.67;100.00;100785.97;10377797;28;20242;-72
2022/10/08 20:15:15;;;;;;;4.97;2.80;;;;;;;14.70;100.00;100774.91;10376782;28;20088;-73
2022/10/08 20:20:16;;;;;;;4.20;2.60;;;;;;;14.28;100.00;100696.13;10376849;28;20049;-74
2022/10/08 20:25:19;;;;;;;7.38;3.10;;;;;;;14.44;100.00;100724.50;10375771;28;20148;-73
2022/10/08 20:30:20;;;;;;;6.60;2.72;;;;;;;14.48;100.00;100732.00;10375964;28;20041;-71
2022/10/08 20:35:20;;;;;;;5.40;2.30;;;;;;;14.74;100.00;100760.97;10375563;28;20046;-76
2022/10/08 20:40:21;;;;;;;6.45;2.45;;;;;;;14.64;100.00;100743.53;10376128;28;20129;-73
2022/10/08 20:45:22;;;;;;;4.70;2.60;;;;;;;14.54;100.00;100714.44;10375128;28;20131;-72
2022/10/08 20:50:23;;;;;;;6.72;2.58;;;;;;;14.08;100.00;100637.88;10395763;28;20533;-71
2022/10/08 20:55:24;;;;;;;5.22;2.50;;;;;;;14.57;100.00;100728.25;10415751;28;20127;-71
2022/10/08 21:00:25;;;;;;;5.55;2.63;;;;;;;14.67;100.00;100748.53;10416299;28;20568;-71
2022/10/08 21:05:26;;;;;;;6.72;2.70;;;;;;;14.70;100.00;100746.31;10415669;28;20044;-71
2022/10/08 21:10:27;;;;;;;6.50;2.47;;;;;;;14.70;100.00;100735.59;10415070;28;20044;-73
2022/10/08 21:15:28;;;;;;;7.18;3.47;;;;;;;14.61;100.00;100729.53;10422610;28;20052;-74
2022/10/08 21:20:29;;;;;;;3.90;2.65;;;;;;;14.75;100.00;100745.75;10428493;28;20044;-73
2022/10/08 21:25:30;;;;;;;5.95;2.53;;;;;;;14.11;100.00;100640.19;10434684;28;20056;-73
2022/10/08 21:30:31;;;;;;;7.40;2.50;;;;;;;14.12;100.00;100625.00;10430866;28;20037;-69
2022/10/08 21:35:35;;;;;;;7.57;2.67;;;;;;;14.81;100.00;100751.19;10432406;28;20034;-68
2022/10/08 21:40:35;;;;;;;5.47;2.72;;;;;;;14.84;100.00;100734.78;10397297;28;20517;-72
2022/10/08 21:45:36;;;;;;;6.93;3.08;;;;;;;14.73;100.00;100718.38;10404713;28;20175;-71
2022/10/08 21:50:37;;;;;;;5.38;2.67;;;;;;;14.77;100.00;100725.00;10413621;28;20042;-73
2022/10/08 21:55:37;;;;;;;8.18;2.63;;;;;;;14.77;100.00;100727.66;10408192;28;20046;-69
2022/10/08 22:00:38;;;;;;;9.05;3.10;;;;;;;14.03;100.00;100600.22;10372376;28;20088;-72
2022/10/08 22:05:47;;;;;;;15.48;2.90;;;;;;;14.75;100.00;100719.03;10373141;28;20041;-74
2022/10/08 22:10:48;;;;;;;4.93;2.70;;;;;;;15.00;100.00;100754.31;10373064;28;20044;-67
2022/10/08 22:15:54;;;;;;;10.88;3.25;;;;;;;14.66;100.00;100699.56;10371932;28;20041;-74
2022/10/08 22:20:56;;;;;;;7.75;3.05;;;;;;;15.07;100.00;100765.91;10372756;28;20073;-72
2022/10/08 22:26:00;;;;;;;6.40;2.90;;;;;;;14.91;100.00;100742.06;10372639;28;20386;-69
2022/10/08 22:31:02;;;;;;;7.90;2.92;;;;;;;15.12;100.00;100770.72;10372752;28;20095;-71
2022/10/08 22:36:06;;;;;;;6.30;2.50;;;;;;;15.14;100.00;100757.97;10370964;28;20100;-68
2022/10/08 22:41:13;;;;;;;5.38;2.55;;;;;;;15.11;100.00;100756.50;10371505;28;20140;-74
2022/10/08 22:46:20;;;;;;;5.35;2.30;;;;;;;15.05;100.00;100742.03;10372164;28;20046;-72
2022/10/08 22:51:21;;;;;;;7.60;2.78;;;;;;;15.24;100.00;100756.66;10371496;28;20668;-69
2022/10/08 22:56:25;;;;;;;8.13;3.28;;;;;;;15.28;100.00;100752.56;10371773;28;20413;-73
2022/10/08 23:01:27;;;;;;;9.55;2.78;;;;;;;15.32;100.00;100736.97;10371327;28;20045;-73
2022/10/08 23:06:31;;;;;;;8.77;2.33;;;;;;;15.34;100.00;100734.09;10371019;28;20042;-73
2022/10/08 23:11:33;;;;;;;9.40;2.90;;;;;;;15.32;100.00;100723.59;10389539;28;20046;-73
2022/10/08 23:16:34;;;;;;;5.10;2.47;;;;;;;14.83;100.00;100630.63;10378916;28;20037;-73
2022/10/08 23:21:36;;;;;;;6.30;2.42;;;;;;;15.38;100.00;100712.13;10379073;28;20092;-73